sensor_id;sensor_type;location;lat;lon;timestamp;P1;durP1;ratioP1;P2;durP2;ratioP2
58756;SDS011;44527;47.460;19.016;2023-08-20T00:02:35;15.20;;;9.15;;
58756;SDS011;44527;47.460;19.016;2023-08-20T00:05:40;13.93;;;9.80;;
58756;SDS011;44527;47.460;19.016;2023-08-20T00:08:43;11.10;;;9.15;;
58756;SDS011;44527;47.460;19.016;2023-08-20T00:11:45;11.88;;;9.10;;
58756;SDS011;44527;47.460;19.016;2023-08-20T00:14:55;19.50;;;8.65;;
58756;SDS011;44527;47.460;19.016;2023-08-20T00:18:00;11.85;;;8.35;;
58756;SDS011;44527;47.460;19.016;2023-08-20T00:21:03;12.95;;;8.25;;
58756;SDS011;44527;47.460;19.016;2023-08-20T00:24:06;14.05;;;8.82;;
58756;SDS011;44527;47.460;19.016;2023-08-20T00:27:09;15.95;;;8.20;;
58756;SDS011;44527;47.460;19.016;2023-08-20T00:30:12;15.65;;;9.18;;
58756;SDS011;44527;47.460;19.016;2023-08-20T00:33:14;11.35;;;8.90;;
58756;SDS011;44527;47.460;19.016;2023-08-20T00:36:17;11.38;;;8.55;;
58756;SDS011;44527;47.460;19.016;2023-08-20T00:39:20;12.70;;;9.00;;
58756;SDS011;44527;47.460;19.016;2023-08-20T00:42:22;17.55;;;9.30;;
58756;SDS011;44527;47.460;19.016;2023-08-20T00:45:27;13.40;;;8.82;;
58756;SDS011;44527;47.460;19.016;2023-08-20T00:48:30;9.57;;;8.57;;
58756;SDS011;44527;47.460;19.016;2023-08-20T00:51:33;18.15;;;8.68;;
58756;SDS011;44527;47.460;19.016;2023-08-20T00:54:37;10.45;;;8.73;;
58756;SDS011;44527;47.460;19.016;2023-08-20T00:57:41;18.30;;;9.00;;
58756;SDS011;44527;47.460;19.016;2023-08-20T01:00:44;18.92;;;10.23;;
58756;SDS011;44527;47.460;19.016;2023-08-20T01:03:47;15.52;;;8.23;;
58756;SDS011;44527;47.460;19.016;2023-08-20T01:06:53;16.00;;;8.15;;
58756;SDS011;44527;47.460;19.016;2023-08-20T01:10:02;12.33;;;8.43;;
58756;SDS011;44527;47.460;19.016;2023-08-20T01:13:10;18.23;;;8.68;;
58756;SDS011;44527;47.460;19.016;2023-08-20T01:16:13;13.98;;;8.68;;
58756;SDS011;44527;47.460;19.016;2023-08-20T01:19:17;13.85;;;9.05;;
58756;SDS011;44527;47.460;19.016;2023-08-20T01:29:01;10.68;;;8.98;;
58756;SDS011;44527;47.460;19.016;2023-08-20T01:32:06;18.33;;;8.85;;
58756;SDS011;44527;47.460;19.016;2023-08-20T01:35:12;10.48;;;8.60;;
58756;SDS011;44527;47.460;19.016;2023-08-20T01:38:18;15.88;;;8.85;;
58756;SDS011;44527;47.460;19.016;2023-08-20T01:41:20;12.63;;;8.32;;
58756;SDS011;44527;47.460;19.016;2023-08-20T01:44:22;14.15;;;9.43;;
58756;SDS011;44527;47.460;19.016;2023-08-20T01:47:25;13.15;;;9.13;;
58756;SDS011;44527;47.460;19.016;2023-08-20T01:50:28;21.92;;;8.85;;
58756;SDS011;44527;47.460;19.016;2023-08-20T01:53:31;14.25;;;8.80;;
58756;SDS011;44527;47.460;19.016;2023-08-20T01:56:35;16.73;;;8.73;;
58756;SDS011;44527;47.460;19.016;2023-08-20T01:59:37;15.95;;;8.82;;
58756;SDS011;44527;47.460;19.016;2023-08-20T02:02:40;14.07;;;9.32;;
58756;SDS011;44527;47.460;19.016;2023-08-20T02:05:43;16.08;;;9.77;;
58756;SDS011;44527;47.460;19.016;2023-08-20T02:08:45;14.98;;;9.07;;
58756;SDS011;44527;47.460;19.016;2023-08-20T02:11:50;11.98;;;8.88;;
58756;SDS011;44527;47.460;19.016;2023-08-20T02:14:52;15.57;;;8.98;;
58756;SDS011;44527;47.460;19.016;2023-08-20T02:17:56;13.73;;;8.45;;
58756;SDS011;44527;47.460;19.016;2023-08-20T02:20:58;18.92;;;9.60;;
58756;SDS011;44527;47.460;19.016;2023-08-20T02:24:01;15.90;;;8.88;;
58756;SDS011;44527;47.460;19.016;2023-08-20T02:27:03;14.50;;;9.52;;
58756;SDS011;44527;47.460;19.016;2023-08-20T02:30:06;15.98;;;9.27;;
58756;SDS011;44527;47.460;19.016;2023-08-20T02:33:10;11.50;;;8.13;;
58756;SDS011;44527;47.460;19.016;2023-08-20T02:36:13;12.18;;;9.52;;
58756;SDS011;44527;47.460;19.016;2023-08-20T02:39:16;19.83;;;9.07;;
58756;SDS011;44527;47.460;19.016;2023-08-20T02:42:19;14.02;;;9.60;;
58756;SDS011;44527;47.460;19.016;2023-08-20T02:45:21;17.87;;;9.98;;
58756;SDS011;44527;47.460;19.016;2023-08-20T02:48:26;17.48;;;9.25;;
58756;SDS011;44527;47.460;19.016;2023-08-20T02:51:29;14.07;;;9.60;;
58756;SDS011;44527;47.460;19.016;2023-08-20T02:54:31;15.73;;;9.32;;
58756;SDS011;44527;47.460;19.016;2023-08-20T02:57:34;18.10;;;9.27;;
58756;SDS011;44527;47.460;19.016;2023-08-20T03:00:37;10.10;;;8.52;;
58756;SDS011;44527;47.460;19.016;2023-08-20T03:03:40;19.37;;;8.25;;
58756;SDS011;44527;47.460;19.016;2023-08-20T03:06:44;16.58;;;9.15;;
58756;SDS011;44527;47.460;19.016;2023-08-20T03:09:46;19.00;;;9.23;;
58756;SDS011;44527;47.460;19.016;2023-08-20T03:12:49;14.38;;;10.05;;
58756;SDS011;44527;47.460;19.016;2023-08-20T03:15:51;13.55;;;9.48;;
58756;SDS011;44527;47.460;19.016;2023-08-20T03:18:56;14.43;;;9.52;;
58756;SDS011;44527;47.460;19.016;2023-08-20T03:21:58;12.52;;;9.05;;
58756;SDS011;44527;47.460;19.016;2023-08-20T03:25:01;16.40;;;9.52;;
58756;SDS011;44527;47.460;19.016;2023-08-20T03:28:04;16.17;;;9.80;;
58756;SDS011;44527;47.460;19.016;2023-08-20T03:31:07;13.55;;;8.85;;
58756;SDS011;44527;47.460;19.016;2023-08-20T03:34:10;15.73;;;8.85;;
58756;SDS011;44527;47.460;19.016;2023-08-20T03:37:12;12.80;;;9.90;;
58756;SDS011;44527;47.460;19.016;2023-08-20T03:40:16;14.38;;;10.10;;
58756;SDS011;44527;47.460;19.016;2023-08-20T03:43:20;14.93;;;9.35;;
58756;SDS011;44527;47.460;19.016;2023-08-20T03:46:23;39.45;;;11.15;;
58756;SDS011;44527;47.460;19.016;2023-08-20T03:49:26;15.43;;;9.82;;
58756;SDS011;44527;47.460;19.016;2023-08-20T03:52:28;14.48;;;9.57;;
58756;SDS011;44527;47.460;19.016;2023-08-20T03:55:31;20.77;;;10.25;;
58756;SDS011;44527;47.460;19.016;2023-08-20T03:58:33;15.00;;;9.63;;
58756;SDS011;44527;47.460;19.016;2023-08-20T04:01:36;12.07;;;9.30;;
58756;SDS011;44527;47.460;19.016;2023-08-20T04:04:39;10.75;;;9.05;;
58756;SDS011;44527;47.460;19.016;2023-08-20T04:07:42;12.32;;;8.65;;
58756;SDS011;44527;47.460;19.016;2023-08-20T04:10:45;14.30;;;10.48;;
58756;SDS011;44527;47.460;19.016;2023-08-20T04:13:50;17.87;;;9.68;;
58756;SDS011;44527;47.460;19.016;2023-08-20T04:16:54;18.98;;;10.10;;
58756;SDS011;44527;47.460;19.016;2023-08-20T04:19:56;18.98;;;9.50;;
58756;SDS011;44527;47.460;19.016;2023-08-20T04:22:58;14.15;;;8.88;;
58756;SDS011;44527;47.460;19.016;2023-08-20T04:26:01;12.82;;;9.43;;
58756;SDS011;44527;47.460;19.016;2023-08-20T04:29:03;18.05;;;11.52;;
58756;SDS011;44527;47.460;19.016;2023-08-20T04:32:06;17.12;;;9.70;;
58756;SDS011;44527;47.460;19.016;2023-08-20T04:35:08;18.23;;;9.35;;
58756;SDS011;44527;47.460;19.016;2023-08-20T04:38:13;19.00;;;9.60;;
58756;SDS011;44527;47.460;19.016;2023-08-20T04:41:16;14.80;;;9.40;;
58756;SDS011;44527;47.460;19.016;2023-08-20T04:44:18;14.18;;;9.73;;
58756;SDS011;44527;47.460;19.016;2023-08-20T04:47:21;14.65;;;9.63;;
58756;SDS011;44527;47.460;19.016;2023-08-20T04:50:23;19.12;;;9.35;;
58756;SDS011;44527;47.460;19.016;2023-08-20T04:53:26;13.13;;;9.35;;
58756;SDS011;44527;47.460;19.016;2023-08-20T04:56:28;20.83;;;9.88;;
58756;SDS011;44527;47.460;19.016;2023-08-20T04:59:31;14.50;;;9.27;;
58756;SDS011;44527;47.460;19.016;2023-08-20T05:02:38;17.87;;;8.88;;
58756;SDS011;44527;47.460;19.016;2023-08-20T05:05:48;11.77;;;8.25;;
58756;SDS011;44527;47.460;19.016;2023-08-20T05:08:51;15.18;;;7.87;;
58756;SDS011;44527;47.460;19.016;2023-08-20T05:11:54;12.10;;;7.45;;
58756;SDS011;44527;47.460;19.016;2023-08-20T05:14:57;10.82;;;6.95;;
58756;SDS011;44527;47.460;19.016;2023-08-20T05:18:00;13.82;;;7.62;;
58756;SDS011;44527;47.460;19.016;2023-08-20T05:21:02;7.85;;;7.05;;
58756;SDS011;44527;47.460;19.016;2023-08-20T05:24:05;9.82;;;6.22;;
58756;SDS011;44527;47.460;19.016;2023-08-20T05:27:09;9.50;;;6.53;;
58756;SDS011;44527;47.460;19.016;2023-08-20T05:30:18;10.70;;;6.30;;
58756;SDS011;44527;47.460;19.016;2023-08-20T05:33:20;9.38;;;6.80;;
58756;SDS011;44527;47.460;19.016;2023-08-20T05:36:23;9.60;;;6.22;;
58756;SDS011;44527;47.460;19.016;2023-08-20T05:39:25;9.85;;;5.57;;
58756;SDS011;44527;47.460;19.016;2023-08-20T05:42:28;10.35;;;5.65;;
58756;SDS011;44527;47.460;19.016;2023-08-20T05:45:32;7.07;;;5.90;;
58756;SDS011;44527;47.460;19.016;2023-08-20T05:48:35;9.93;;;5.93;;
58756;SDS011;44527;47.460;19.016;2023-08-20T05:51:37;15.25;;;5.57;;
58756;SDS011;44527;47.460;19.016;2023-08-20T05:54:40;7.03;;;5.37;;
58756;SDS011;44527;47.460;19.016;2023-08-20T05:57:42;8.40;;;5.15;;
58756;SDS011;44527;47.460;19.016;2023-08-20T06:00:45;7.03;;;5.68;;
58756;SDS011;44527;47.460;19.016;2023-08-20T06:03:49;11.12;;;5.68;;
58756;SDS011;44527;47.460;19.016;2023-08-20T06:06:51;7.43;;;4.93;;
58756;SDS011;44527;47.460;19.016;2023-08-20T06:09:54;9.32;;;4.82;;
58756;SDS011;44527;47.460;19.016;2023-08-20T06:12:56;6.07;;;4.40;;
58756;SDS011;44527;47.460;19.016;2023-08-20T06:15:59;8.10;;;5.03;;
58756;SDS011;44527;47.460;19.016;2023-08-20T06:19:02;8.68;;;4.75;;
58756;SDS011;44527;47.460;19.016;2023-08-20T06:22:06;8.80;;;4.82;;
58756;SDS011;44527;47.460;19.016;2023-08-20T06:25:09;9.98;;;4.82;;
58756;SDS011;44527;47.460;19.016;2023-08-20T06:28:13;7.55;;;4.90;;
58756;SDS011;44527;47.460;19.016;2023-08-20T06:31:15;8.20;;;3.95;;
58756;SDS011;44527;47.460;19.016;2023-08-20T06:34:18;8.13;;;4.12;;
58756;SDS011;44527;47.460;19.016;2023-08-20T06:37:20;8.80;;;4.60;;
58756;SDS011;44527;47.460;19.016;2023-08-20T06:40:23;5.30;;;3.95;;
58756;SDS011;44527;47.460;19.016;2023-08-20T06:43:26;4.93;;;3.85;;
58756;SDS011;44527;47.460;19.016;2023-08-20T06:46:28;7.97;;;4.28;;
58756;SDS011;44527;47.460;19.016;2023-08-20T06:49:30;7.85;;;4.05;;
58756;SDS011;44527;47.460;19.016;2023-08-20T06:52:33;5.25;;;3.80;;
58756;SDS011;44527;47.460;19.016;2023-08-20T06:55:35;10.82;;;4.30;;
58756;SDS011;44527;47.460;19.016;2023-08-20T06:58:39;8.90;;;4.18;;
58756;SDS011;44527;47.460;19.016;2023-08-20T07:01:42;7.47;;;3.60;;
58756;SDS011;44527;47.460;19.016;2023-08-20T07:04:45;7.28;;;3.90;;
58756;SDS011;44527;47.460;19.016;2023-08-20T07:07:47;6.15;;;4.00;;
58756;SDS011;44527;47.460;19.016;2023-08-20T07:10:50;12.57;;;3.58;;
58756;SDS011;44527;47.460;19.016;2023-08-20T07:13:52;4.90;;;3.62;;
58756;SDS011;44527;47.460;19.016;2023-08-20T07:16:55;8.25;;;3.53;;
58756;SDS011;44527;47.460;19.016;2023-08-20T07:19:59;16.27;;;4.18;;
58756;SDS011;44527;47.460;19.016;2023-08-20T07:23:01;8.32;;;3.62;;
58756;SDS011;44527;47.460;19.016;2023-08-20T07:26:07;6.97;;;3.65;;
58756;SDS011;44527;47.460;19.016;2023-08-20T07:29:11;6.68;;;4.00;;
58756;SDS011;44527;47.460;19.016;2023-08-20T07:32:13;8.93;;;3.47;;
58756;SDS011;44527;47.460;19.016;2023-08-20T07:35:16;10.50;;;3.75;;
58756;SDS011;44527;47.460;19.016;2023-08-20T07:38:18;4.50;;;3.78;;
58756;SDS011;44527;47.460;19.016;2023-08-20T07:41:21;10.57;;;3.37;;
58756;SDS011;44527;47.460;19.016;2023-08-20T07:44:24;6.12;;;3.70;;
58756;SDS011;44527;47.460;19.016;2023-08-20T07:47:26;9.52;;;3.90;;
58756;SDS011;44527;47.460;19.016;2023-08-20T07:50:31;3.85;;;3.45;;
58756;SDS011;44527;47.460;19.016;2023-08-20T07:53:34;8.90;;;3.67;;
58756;SDS011;44527;47.460;19.016;2023-08-20T07:56:36;5.53;;;3.70;;
58756;SDS011;44527;47.460;19.016;2023-08-20T07:59:39;3.75;;;3.30;;
58756;SDS011;44527;47.460;19.016;2023-08-20T08:02:41;5.10;;;3.90;;
58756;SDS011;44527;47.460;19.016;2023-08-20T08:05:47;8.43;;;3.65;;
58756;SDS011;44527;47.460;19.016;2023-08-20T08:08:50;7.30;;;4.20;;
58756;SDS011;44527;47.460;19.016;2023-08-20T08:11:53;7.32;;;4.22;;
58756;SDS011;44527;47.460;19.016;2023-08-20T08:14:55;7.90;;;4.40;;
58756;SDS011;44527;47.460;19.016;2023-08-20T08:17:58;5.85;;;3.78;;
58756;SDS011;44527;47.460;19.016;2023-08-20T08:21:00;6.97;;;3.70;;
58756;SDS011;44527;47.460;19.016;2023-08-20T08:24:03;4.18;;;3.78;;
58756;SDS011;44527;47.460;19.016;2023-08-20T08:27:06;8.20;;;3.80;;
58756;SDS011;44527;47.460;19.016;2023-08-20T08:30:08;10.75;;;4.20;;
58756;SDS011;44527;47.460;19.016;2023-08-20T08:33:11;8.48;;;4.20;;
58756;SDS011;44527;47.460;19.016;2023-08-20T08:36:13;8.65;;;4.62;;
58756;SDS011;44527;47.460;19.016;2023-08-20T08:39:18;5.45;;;4.55;;
58756;SDS011;44527;47.460;19.016;2023-08-20T08:42:21;6.43;;;5.15;;
58756;SDS011;44527;47.460;19.016;2023-08-20T08:45:25;7.45;;;5.72;;
58756;SDS011;44527;47.460;19.016;2023-08-20T08:48:29;6.93;;;5.12;;
58756;SDS011;44527;47.460;19.016;2023-08-20T08:51:32;7.43;;;5.20;;
58756;SDS011;44527;47.460;19.016;2023-08-20T08:54:36;12.18;;;5.80;;
58756;SDS011;44527;47.460;19.016;2023-08-20T08:57:38;8.88;;;5.40;;
58756;SDS011;44527;47.460;19.016;2023-08-20T09:00:41;7.82;;;5.62;;
58756;SDS011;44527;47.460;19.016;2023-08-20T09:03:43;12.30;;;5.50;;
58756;SDS011;44527;47.460;19.016;2023-08-20T09:06:47;6.25;;;5.05;;
58756;SDS011;44527;47.460;19.016;2023-08-20T09:09:56;7.22;;;5.12;;
58756;SDS011;44527;47.460;19.016;2023-08-20T09:13:00;8.25;;;4.95;;
58756;SDS011;44527;47.460;19.016;2023-08-20T09:16:03;8.85;;;5.00;;
58756;SDS011;44527;47.460;19.016;2023-08-20T09:19:08;5.82;;;5.18;;
58756;SDS011;44527;47.460;19.016;2023-08-20T09:22:11;7.05;;;5.28;;
58756;SDS011;44527;47.460;19.016;2023-08-20T09:25:15;13.65;;;4.85;;
58756;SDS011;44527;47.460;19.016;2023-08-20T09:28:18;7.40;;;5.35;;
58756;SDS011;44527;47.460;19.016;2023-08-20T09:31:21;6.25;;;5.03;;
58756;SDS011;44527;47.460;19.016;2023-08-20T09:34:39;11.27;;;4.93;;
58756;SDS011;44527;47.460;19.016;2023-08-20T09:37:43;6.15;;;4.70;;
58756;SDS011;44527;47.460;19.016;2023-08-20T09:40:48;10.75;;;5.03;;
58756;SDS011;44527;47.460;19.016;2023-08-20T09:43:55;6.72;;;4.97;;
58756;SDS011;44527;47.460;19.016;2023-08-20T09:46:59;12.50;;;4.95;;
58756;SDS011;44527;47.460;19.016;2023-08-20T09:50:02;7.03;;;5.07;;
58756;SDS011;44527;47.460;19.016;2023-08-20T09:53:12;7.50;;;4.62;;
58756;SDS011;44527;47.460;19.016;2023-08-20T09:56:27;7.93;;;4.85;;
58756;SDS011;44527;47.460;19.016;2023-08-20T09:59:31;11.63;;;4.68;;
58756;SDS011;44527;47.460;19.016;2023-08-20T10:02:35;9.30;;;5.00;;
58756;SDS011;44527;47.460;19.016;2023-08-20T10:05:38;9.70;;;4.32;;
58756;SDS011;44527;47.460;19.016;2023-08-20T10:08:42;7.75;;;4.40;;
58756;SDS011;44527;47.460;19.016;2023-08-20T10:11:45;8.30;;;4.20;;
58756;SDS011;44527;47.460;19.016;2023-08-20T10:14:48;5.97;;;4.00;;
58756;SDS011;44527;47.460;19.016;2023-08-20T10:17:51;6.30;;;3.83;;
58756;SDS011;44527;47.460;19.016;2023-08-20T10:20:56;6.35;;;4.40;;
58756;SDS011;44527;47.460;19.016;2023-08-20T10:24:08;5.72;;;4.10;;
58756;SDS011;44527;47.460;19.016;2023-08-20T10:27:12;6.97;;;4.15;;
58756;SDS011;44527;47.460;19.016;2023-08-20T10:30:18;10.63;;;4.40;;
58756;SDS011;44527;47.460;19.016;2023-08-20T10:33:23;7.12;;;4.40;;
58756;SDS011;44527;47.460;19.016;2023-08-20T10:36:26;6.53;;;4.20;;
58756;SDS011;44527;47.460;19.016;2023-08-20T10:39:30;7.03;;;4.10;;
58756;SDS011;44527;47.460;19.016;2023-08-20T10:42:32;6.60;;;4.28;;
58756;SDS011;44527;47.460;19.016;2023-08-20T10:45:43;7.75;;;4.50;;
58756;SDS011;44527;47.460;19.016;2023-08-20T10:49:02;10.32;;;4.25;;
58756;SDS011;44527;47.460;19.016;2023-08-20T10:52:05;5.30;;;4.32;;
58756;SDS011;44527;47.460;19.016;2023-08-20T10:55:08;5.43;;;4.32;;
58756;SDS011;44527;47.460;19.016;2023-08-20T10:58:14;5.60;;;4.45;;
58756;SDS011;44527;47.460;19.016;2023-08-20T11:01:19;8.45;;;3.92;;
58756;SDS011;44527;47.460;19.016;2023-08-20T11:04:24;8.10;;;4.72;;
58756;SDS011;44527;47.460;19.016;2023-08-20T11:07:31;5.93;;;4.30;;
58756;SDS011;44527;47.460;19.016;2023-08-20T11:10:37;6.53;;;3.97;;
58756;SDS011;44527;47.460;19.016;2023-08-20T11:13:40;5.28;;;4.05;;
58756;SDS011;44527;47.460;19.016;2023-08-20T11:16:43;9.05;;;4.40;;
58756;SDS011;44527;47.460;19.016;2023-08-20T11:19:46;9.27;;;4.53;;
58756;SDS011;44527;47.460;19.016;2023-08-20T11:23:08;12.50;;;4.60;;
58756;SDS011;44527;47.460;19.016;2023-08-20T11:26:12;6.45;;;4.00;;
58756;SDS011;44527;47.460;19.016;2023-08-20T11:29:15;5.28;;;4.00;;
58756;SDS011;44527;47.460;19.016;2023-08-20T11:32:23;7.97;;;3.92;;
58756;SDS011;44527;47.460;19.016;2023-08-20T11:35:26;7.43;;;4.40;;
58756;SDS011;44527;47.460;19.016;2023-08-20T11:38:29;9.02;;;4.10;;
58756;SDS011;44527;47.460;19.016;2023-08-20T11:41:35;6.07;;;4.60;;
58756;SDS011;44527;47.460;19.016;2023-08-20T11:44:42;4.93;;;4.23;;
58756;SDS011;44527;47.460;19.016;2023-08-20T11:47:46;8.48;;;4.30;;
58756;SDS011;44527;47.460;19.016;2023-08-20T11:50:50;16.55;;;4.12;;
58756;SDS011;44527;47.460;19.016;2023-08-20T11:53:52;6.40;;;4.57;;
58756;SDS011;44527;47.460;19.016;2023-08-20T11:57:01;6.93;;;4.20;;
58756;SDS011;44527;47.460;19.016;2023-08-20T12:00:05;7.45;;;4.62;;
58756;SDS011;44527;47.460;19.016;2023-08-20T12:03:15;8.25;;;4.90;;
58756;SDS011;44527;47.460;19.016;2023-08-20T12:06:21;8.48;;;4.80;;
58756;SDS011;44527;47.460;19.016;2023-08-20T12:09:30;7.05;;;4.45;;
58756;SDS011;44527;47.460;19.016;2023-08-20T12:12:34;7.45;;;4.60;;
58756;SDS011;44527;47.460;19.016;2023-08-20T12:15:36;7.60;;;4.55;;
58756;SDS011;44527;47.460;19.016;2023-08-20T12:18:38;10.57;;;4.87;;
58756;SDS011;44527;47.460;19.016;2023-08-20T12:21:41;6.90;;;4.90;;
58756;SDS011;44527;47.460;19.016;2023-08-20T12:24:47;7.50;;;5.03;;
58756;SDS011;44527;47.460;19.016;2023-08-20T12:27:52;8.68;;;5.05;;
58756;SDS011;44527;47.460;19.016;2023-08-20T12:30:54;8.20;;;5.18;;
58756;SDS011;44527;47.460;19.016;2023-08-20T12:33:57;7.22;;;5.03;;
58756;SDS011;44527;47.460;19.016;2023-08-20T12:37:00;10.30;;;5.47;;
58756;SDS011;44527;47.460;19.016;2023-08-20T12:40:05;7.70;;;5.20;;
58756;SDS011;44527;47.460;19.016;2023-08-20T12:43:12;8.60;;;4.82;;
58756;SDS011;44527;47.460;19.016;2023-08-20T12:46:15;5.75;;;4.85;;
58756;SDS011;44527;47.460;19.016;2023-08-20T12:49:18;5.80;;;4.90;;
58756;SDS011;44527;47.460;19.016;2023-08-20T12:52:22;6.85;;;4.80;;
58756;SDS011;44527;47.460;19.016;2023-08-20T12:55:25;6.25;;;5.10;;
58756;SDS011;44527;47.460;19.016;2023-08-20T12:58:27;9.80;;;5.20;;
58756;SDS011;44527;47.460;19.016;2023-08-20T13:01:32;9.38;;;5.20;;
58756;SDS011;44527;47.460;19.016;2023-08-20T13:04:34;6.47;;;4.57;;
58756;SDS011;44527;47.460;19.016;2023-08-20T13:07:37;8.98;;;5.05;;
58756;SDS011;44527;47.460;19.016;2023-08-20T13:10:40;9.88;;;4.93;;
58756;SDS011;44527;47.460;19.016;2023-08-20T13:13:45;5.20;;;4.68;;
58756;SDS011;44527;47.460;19.016;2023-08-20T13:16:48;5.82;;;4.62;;
58756;SDS011;44527;47.460;19.016;2023-08-20T13:19:50;7.70;;;4.37;;
58756;SDS011;44527;47.460;19.016;2023-08-20T13:22:53;19.73;;;4.93;;
58756;SDS011;44527;47.460;19.016;2023-08-20T13:25:55;12.05;;;5.37;;
58756;SDS011;44527;47.460;19.016;2023-08-20T13:28:58;6.85;;;4.75;;
58756;SDS011;44527;47.460;19.016;2023-08-20T13:32:00;8.02;;;4.87;;
58756;SDS011;44527;47.460;19.016;2023-08-20T13:35:03;8.68;;;5.03;;
58756;SDS011;44527;47.460;19.016;2023-08-20T13:38:06;8.48;;;4.47;;
58756;SDS011;44527;47.460;19.016;2023-08-20T13:41:11;6.85;;;5.15;;
58756;SDS011;44527;47.460;19.016;2023-08-20T13:44:14;14.07;;;4.85;;
58756;SDS011;44527;47.460;19.016;2023-08-20T13:47:16;5.82;;;4.80;;
58756;SDS011;44527;47.460;19.016;2023-08-20T13:50:19;8.27;;;4.75;;
58756;SDS011;44527;47.460;19.016;2023-08-20T13:53:21;8.68;;;5.45;;
58756;SDS011;44527;47.460;19.016;2023-08-20T13:56:24;6.35;;;4.85;;
58756;SDS011;44527;47.460;19.016;2023-08-20T13:59:30;8.68;;;5.03;;
58756;SDS011;44527;47.460;19.016;2023-08-20T14:02:33;6.45;;;4.28;;
58756;SDS011;44527;47.460;19.016;2023-08-20T14:05:36;7.28;;;5.43;;
58756;SDS011;44527;47.460;19.016;2023-08-20T14:08:38;5.72;;;4.75;;
58756;SDS011;44527;47.460;19.016;2023-08-20T14:11:41;9.95;;;4.57;;
58756;SDS011;44527;47.460;19.016;2023-08-20T14:14:44;8.85;;;5.47;;
58756;SDS011;44527;47.460;19.016;2023-08-20T14:17:46;11.27;;;5.97;;
58756;SDS011;44527;47.460;19.016;2023-08-20T14:20:49;7.90;;;5.20;;
58756;SDS011;44527;47.460;19.016;2023-08-20T14:23:52;8.10;;;5.60;;
58756;SDS011;44527;47.460;19.016;2023-08-20T14:26:56;7.72;;;5.05;;
58756;SDS011;44527;47.460;19.016;2023-08-20T14:30:00;8.68;;;5.22;;
58756;SDS011;44527;47.460;19.016;2023-08-20T14:33:02;6.75;;;5.68;;
58756;SDS011;44527;47.460;19.016;2023-08-20T14:36:06;11.27;;;5.75;;
58756;SDS011;44527;47.460;19.016;2023-08-20T14:39:09;10.93;;;5.82;;
58756;SDS011;44527;47.460;19.016;2023-08-20T14:42:13;7.25;;;5.47;;
58756;SDS011;44527;47.460;19.016;2023-08-20T14:45:15;7.50;;;5.85;;
58756;SDS011;44527;47.460;19.016;2023-08-20T14:48:18;7.68;;;5.95;;
58756;SDS011;44527;47.460;19.016;2023-08-20T14:51:21;10.60;;;5.87;;
58756;SDS011;44527;47.460;19.016;2023-08-20T14:54:24;7.95;;;5.80;;
58756;SDS011;44527;47.460;19.016;2023-08-20T14:57:26;6.90;;;5.37;;
58756;SDS011;44527;47.460;19.016;2023-08-20T15:00:49;10.00;;;5.47;;
58756;SDS011;44527;47.460;19.016;2023-08-20T15:03:52;13.02;;;5.15;;
58756;SDS011;44527;47.460;19.016;2023-08-20T15:06:55;10.68;;;5.20;;
58756;SDS011;44527;47.460;19.016;2023-08-20T15:09:57;10.38;;;5.50;;
58756;SDS011;44527;47.460;19.016;2023-08-20T15:13:00;9.55;;;4.97;;
58756;SDS011;44527;47.460;19.016;2023-08-20T15:16:04;9.38;;;4.80;;
58756;SDS011;44527;47.460;19.016;2023-08-20T15:19:07;9.85;;;4.43;;
58756;SDS011;44527;47.460;19.016;2023-08-20T15:22:10;15.13;;;5.25;;
58756;SDS011;44527;47.460;19.016;2023-08-20T15:25:15;5.97;;;4.68;;
58756;SDS011;44527;47.460;19.016;2023-08-20T15:28:18;12.50;;;5.25;;
58756;SDS011;44527;47.460;19.016;2023-08-20T15:31:20;6.65;;;4.80;;
58756;SDS011;44527;47.460;19.016;2023-08-20T15:34:23;10.60;;;5.03;;
58756;SDS011;44527;47.460;19.016;2023-08-20T15:37:28;10.73;;;5.18;;
58756;SDS011;44527;47.460;19.016;2023-08-20T15:40:31;6.60;;;5.10;;
58756;SDS011;44527;47.460;19.016;2023-08-20T15:43:34;11.50;;;5.05;;
58756;SDS011;44527;47.460;19.016;2023-08-20T15:46:37;7.90;;;5.15;;
58756;SDS011;44527;47.460;19.016;2023-08-20T15:49:40;7.80;;;4.97;;
58756;SDS011;44527;47.460;19.016;2023-08-20T15:52:42;7.97;;;5.12;;
58756;SDS011;44527;47.460;19.016;2023-08-20T15:55:45;6.10;;;4.90;;
58756;SDS011;44527;47.460;19.016;2023-08-20T15:58:48;11.88;;;5.62;;
58756;SDS011;44527;47.460;19.016;2023-08-20T16:01:53;10.85;;;5.57;;
58756;SDS011;44527;47.460;19.016;2023-08-20T16:04:55;11.10;;;5.28;;
58756;SDS011;44527;47.460;19.016;2023-08-20T16:07:58;6.28;;;5.05;;
58756;SDS011;44527;47.460;19.016;2023-08-20T16:11:02;7.00;;;5.68;;
58756;SDS011;44527;47.460;19.016;2023-08-20T16:14:07;8.32;;;5.62;;
58756;SDS011;44527;47.460;19.016;2023-08-20T16:17:10;9.40;;;5.30;;
58756;SDS011;44527;47.460;19.016;2023-08-20T16:20:12;9.25;;;6.10;;
58756;SDS011;44527;47.460;19.016;2023-08-20T16:23:15;9.20;;;5.95;;
58756;SDS011;44527;47.460;19.016;2023-08-20T16:26:17;9.05;;;6.25;;
58756;SDS011;44527;47.460;19.016;2023-08-20T16:29:20;8.35;;;5.47;;
58756;SDS011;44527;47.460;19.016;2023-08-20T16:32:22;7.87;;;6.47;;
58756;SDS011;44527;47.460;19.016;2023-08-20T16:35:25;7.03;;;5.80;;
58756;SDS011;44527;47.460;19.016;2023-08-20T16:38:27;11.23;;;6.07;;
58756;SDS011;44527;47.460;19.016;2023-08-20T16:41:30;9.23;;;6.95;;
58756;SDS011;44527;47.460;19.016;2023-08-20T16:44:32;7.37;;;6.40;;
58756;SDS011;44527;47.460;19.016;2023-08-20T16:47:35;11.75;;;6.57;;
58756;SDS011;44527;47.460;19.016;2023-08-20T16:50:38;11.32;;;6.15;;
58756;SDS011;44527;47.460;19.016;2023-08-20T16:53:41;7.68;;;6.53;;
58756;SDS011;44527;47.460;19.016;2023-08-20T16:56:43;13.32;;;6.28;;
58756;SDS011;44527;47.460;19.016;2023-08-20T16:59:46;8.35;;;6.47;;
58756;SDS011;44527;47.460;19.016;2023-08-20T17:02:48;9.15;;;6.53;;
58756;SDS011;44527;47.460;19.016;2023-08-20T17:05:57;10.65;;;6.93;;
58756;SDS011;44527;47.460;19.016;2023-08-20T17:09:03;9.32;;;6.50;;
58756;SDS011;44527;47.460;19.016;2023-08-20T17:12:06;11.68;;;7.10;;
58756;SDS011;44527;47.460;19.016;2023-08-20T17:15:09;9.07;;;6.75;;
58756;SDS011;44527;47.460;19.016;2023-08-20T17:18:12;8.88;;;6.90;;
58756;SDS011;44527;47.460;19.016;2023-08-20T17:21:15;12.52;;;7.07;;
58756;SDS011;44527;47.460;19.016;2023-08-20T17:24:17;12.88;;;6.95;;
58756;SDS011;44527;47.460;19.016;2023-08-20T17:27:20;10.48;;;7.53;;
58756;SDS011;44527;47.460;19.016;2023-08-20T17:30:23;8.57;;;7.20;;
58756;SDS011;44527;47.460;19.016;2023-08-20T17:33:25;9.88;;;7.15;;
58756;SDS011;44527;47.460;19.016;2023-08-20T17:36:28;10.60;;;7.47;;
58756;SDS011;44527;47.460;19.016;2023-08-20T17:39:30;8.90;;;7.00;;
58756;SDS011;44527;47.460;19.016;2023-08-20T17:42:33;14.25;;;7.25;;
58756;SDS011;44527;47.460;19.016;2023-08-20T17:45:38;22.52;;;8.25;;
58756;SDS011;44527;47.460;19.016;2023-08-20T17:48:41;10.00;;;7.80;;
58756;SDS011;44527;47.460;19.016;2023-08-20T17:51:43;10.50;;;6.97;;
58756;SDS011;44527;47.460;19.016;2023-08-20T17:54:45;10.38;;;7.55;;
58756;SDS011;44527;47.460;19.016;2023-08-20T17:57:49;13.02;;;7.78;;
58756;SDS011;44527;47.460;19.016;2023-08-20T18:00:52;13.82;;;8.98;;
58756;SDS011;44527;47.460;19.016;2023-08-20T18:03:54;13.62;;;9.57;;
58756;SDS011;44527;47.460;19.016;2023-08-20T18:06:57;12.10;;;7.40;;
58756;SDS011;44527;47.460;19.016;2023-08-20T18:10:01;8.88;;;7.05;;